WetterOnline ( http://www.wetteronline.de )

Wetter aktuell Roth

Aktuelles Wetter: Roth (386m)

6-stündlich | Neueste Meldungen
Ortszeit Temperatur Wetter
Mo, 25.03. 13:00 4.3° C bedeckt
Mo, 25.03. 7:00 2.9° C wolkenlos
Mo, 25.03. 1:00 7.3° C bedeckt
So, 24.03. 19:00 9.5° C wolkenlos
So, 24.03. 13:00 14.0° C wolkenlos
So, 24.03. 7:00 0.2° C wolkenlos
So, 24.03. 1:00 2.6° C wolkenlos
Sa, 23.03. 19:00 12.9° C wolkenlos
Ortszeit Temperatur Wetter
Mo, 25.03. 13:00 4.3° C bedeckt
Mo, 25.03. 12:50 4.3° C bedeckt
Mo, 25.03. 12:40 4.0° C bedeckt
Mo, 25.03. 12:30 3.6° C Sprühregen
Mo, 25.03. 12:20 3.6° C Sprühregen
Mo, 25.03. 12:10 3.2° C Sprühregen
Mo, 25.03. 12:00 6.2° C Sprühregen
Mo, 25.03. 11:30 6.6° C wolkig
Mo, 25.03. 11:00 5.7° C Regen
Mo, 25.03. 10:30 5.0° C leichter Regen
Mo, 25.03. 10:00 6.5° C bedeckt
Ortszeit Relative Feuchte Sichtweite
Mo, 25.03. 13:00 86% 12 km
Mo, 25.03. 7:00 71% 16 km
Mo, 25.03. 1:00 80% 5.0 km
So, 24.03. 19:00 73% 4.2 km
So, 24.03. 13:00 57% 4.8 km
So, 24.03. 7:00 96% 2.6 km
So, 24.03. 1:00 90% 5.0 km
Sa, 23.03. 19:00 47% 10 km
Ortszeit Relative Feuchte Sichtweite
Mo, 25.03. 13:00 86% 12 km
Mo, 25.03. 12:50 86% -
Mo, 25.03. 12:40 85% -
Mo, 25.03. 12:30 90% 10 km
Mo, 25.03. 12:20 90% -
Mo, 25.03. 12:10 89% -
Mo, 25.03. 12:00 62% 23 km
Mo, 25.03. 11:30 61% 23 km
Mo, 25.03. 11:00 69% 21 km
Mo, 25.03. 10:30 75% 14 km
Mo, 25.03. 10:00 56% 19 km
Ortszeit Niederschlagsmenge Niederschlagsart
Mo, 25.03. 13:00 0.5 l/m2 in 6 Std. Regen
Mo, 25.03. 7:00 0.0 l/m2 in 12 Std. -
Mo, 25.03. 1:00 0.0 l/m2 in 6 Std. -
So, 24.03. 19:00 0.0 l/m2 in 12 Std. -
So, 24.03. 13:00 0.0 l/m2 in 6 Std. -
So, 24.03. 7:00 0.0 l/m2 in 12 Std. -
So, 24.03. 1:00 0.0 l/m2 in 6 Std. -
Sa, 23.03. 19:00 0.0 l/m2 in 12 Std. -
Ortszeit Niederschlagsmenge Niederschlagsart
Mo, 25.03. 13:00 0.3 l/m2 in 1 Std. Regen
Mo, 25.03. 12:50 keine Meldung -
Mo, 25.03. 12:40 keine Meldung -
Mo, 25.03. 12:30 0.3 l/m2 in 1 Std. -
Mo, 25.03. 12:20 keine Meldung -
Mo, 25.03. 12:10 keine Meldung -
Mo, 25.03. 12:00 0.1 l/m2 in 1 Std. Regen
Mo, 25.03. 11:30 0.0 l/m2 in 1 Std. -
Mo, 25.03. 11:00 0.2 l/m2 in 1 Std. Regen
Mo, 25.03. 10:30 0.1 l/m2 in 1 Std. -
Mo, 25.03. 10:00 0.0 l/m2 in 1 Std. -
Ortszeit Stärke Spitze Richtung
km/h Bft. km/h Grad Sektor
Mo, 25.03. 13:00 25 4 54 290° W
Mo, 25.03. 7:00 18 3 32 280° W
Mo, 25.03. 1:00 11 2 14 270° W
So, 24.03. 19:00 7 2 32 300° NW
So, 24.03. 13:00 11 2 18 340° N
So, 24.03. 7:00 4 1 4 190° S
So, 24.03. 1:00 0 0 14 - -
Sa, 23.03. 19:00 4 1 32 340° N
Ortszeit Stärke Spitze Richtung
km/h Bft. km/h Grad Sektor
Mo, 25.03. 13:00 25 4 54 290° W
Mo, 25.03. 12:50 25 4 - 290° W
Mo, 25.03. 12:40 22 4 - 280° W
Mo, 25.03. 12:30 22 4 54 270° W
Mo, 25.03. 12:20 22 4 - 270° W
Mo, 25.03. 12:10 28 4 - 280° W
Mo, 25.03. 12:00 26 4 44 290° W
Mo, 25.03. 11:30 24 4 44 290° W
Mo, 25.03. 11:00 25 4 50 280° W
Mo, 25.03. 10:30 24 4 50 290° W
Mo, 25.03. 10:00 30 5 46 280° W
Ortszeit Untergrenze Bedeckung Gattung
total tief tief mittel hoch
Mo, 25.03. 13:00 450 m 8/8 8/8 - - -
Mo, 25.03. 7:00 - 0/8 0/8 - - -
Mo, 25.03. 1:00 960 m 8/8 8/8 - - -
So, 24.03. 19:00 - 0/8 0/8 - - -
So, 24.03. 13:00 - 0/8 0/8 - - -
So, 24.03. 7:00 - 0/8 0/8 - - -
So, 24.03. 1:00 - 0/8 0/8 - - -
Sa, 23.03. 19:00 10500 m 0/8 0/8 - - -
Ortszeit Bedeckungsgrad in Achtel und Wolkenuntergrenze
Mo, 25.03. 13:00 3(450m) 7(1500m) 8(2100m)
Mo, 25.03. 12:50 3(450m) 7(1500m) 8(2100m)
Mo, 25.03. 12:40 2(450m) 7(1500m) 8(1800m)
Mo, 25.03. 12:30 1(420m) 7(1320m) 8(1800m)
Mo, 25.03. 12:20 1(420m) 7(1320m) 8(1800m)
Mo, 25.03. 12:10 1(180m) 7(1140m) 8(1500m)
Mo, 25.03. 12:00 2(930m) 7(1350m) 7(1500m)
Mo, 25.03. 11:30 3(960m) 6(2100m) 6(2400m)
Mo, 25.03. 11:00 2(810m) 7(1500m) 8(2400m)
Mo, 25.03. 10:30 2(630m) 6(1380m) 7(1800m)
Mo, 25.03. 10:00 4(1050m) 8(2100m) 8(6000m)
Ortszeit Luftdruck NN (hPa) Tendenz (hPa in 3 Std.)
Mo, 25.03. 13:00 1021 + 0,2
Mo, 25.03. 7:00 1021 + 0,1
Mo, 25.03. 1:00 1022 - 0,9
So, 24.03. 19:00 1022 + 0,9
So, 24.03. 13:00 1022 - 2,2
So, 24.03. 7:00 1027 - 0,6
So, 24.03. 1:00 1028 - 0,4
Sa, 23.03. 19:00 1026 + 0,4
Ortszeit Luftdruck NN (hPa) Tendenz (hPa in 3 Std.)
Mo, 25.03. 13:00 1021 + 0,2
Mo, 25.03. 12:50 1021 keine Meldung
Mo, 25.03. 12:40 1021 keine Meldung
Mo, 25.03. 12:30 1021 + 0,5
Mo, 25.03. 12:20 1021 keine Meldung
Mo, 25.03. 12:10 1021 keine Meldung
Mo, 25.03. 12:00 1020 - 0,4
Mo, 25.03. 11:30 1020 - 0,4
Mo, 25.03. 11:00 1020 - 0,1
Mo, 25.03. 10:30 1020 - 0,2
Mo, 25.03. 10:00 1020 - 0,5
Ortszeit Schneehöhe (cm)
Mo, 25.03. 13:00 0
Mo, 25.03. 7:00 0
Mo, 25.03. 1:00 0
So, 24.03. 19:00 0
So, 24.03. 13:00 0
So, 24.03. 7:00 0
So, 24.03. 1:00 0
Sa, 23.03. 19:00 0
Ortszeit Schneehöhe (cm)
Mo, 25.03. 13:00 0
Mo, 25.03. 12:50 0
Mo, 25.03. 12:40 0
Mo, 25.03. 12:30 0
Mo, 25.03. 12:20 0
Mo, 25.03. 12:10 0
Mo, 25.03. 12:00 0
Mo, 25.03. 11:30 0
Mo, 25.03. 11:00 0
Mo, 25.03. 10:30 0
Mo, 25.03. 10:00 0
Link zu dieser Seite / Seite empfehlen

Das Wetter in ...